Terminal Aerodrome Forecast
Issued by NWS Portland, OR

Home | Current Version | Previous Version | Text Only | Print | Product List | Glossary On
Versions: 1 2 3 4 5 6 7 8 9 10 11 12 13 14 15 16 17 18 19
000
FTUS46 KPQR 251121
TAFAST
TAF
KAST 251121Z 2512/2612 VRB03KT P6SM SCT012 BKN025
     FM251400 VRB03KT P6SM SCT015 OVC025
     FM251700 31004KT P6SM SCT015 BKN025
     FM251900 30007KT P6SM SCT030 SCT250
     FM252100 30010KT P6SM SCT250
     FM260400 30004KT P6SM SKC
     FM261000 VRB03KT P6SM SCT005=

USA.gov is the U.S. government's official web portal to all federal, state and local government web resources and services.